Time;durP1;ratioP1;P1;durP2;ratioP2;P2;SDS_P1;SDS_P2;PMS_P1;PMS_P2;Temp;Humidity;BMP_temperature;BMP_pressure;BME280_temperature;BME280_humidity;BME280_pressure;Samples;Min_cycle;Max_cycle;Signal;HPM_P1;HPM_P2
2022/05/12 04:21:22;;;;;;;18.90;14.57;;;;;;;14.47;95.41;100446.06;5557796;32;202320;-90
2022/05/12 04:24:25;;;;;;;21.15;15.10;;;;;;;14.47;95.41;100446.06;5545522;32;34206;-89
2022/05/12 04:27:28;;;;;;;22.25;14.13;;;;;;;14.11;95.14;100448.34;5544307;32;32456;-88
2022/05/12 04:30:31;;;;;;;21.85;14.68;;;;;;;14.32;93.55;100455.09;5544508;32;34395;-88
2022/05/12 04:36:55;;;;;;;18.98;13.45;;;;;;;14.55;93.74;100456.25;5543736;32;33095;-88
2022/05/12 04:40:11;;;;;;;18.73;14.18;;;;;;;14.68;93.51;100462.50;5543888;32;32955;-88
2022/05/12 04:43:14;;;;;;;18.50;15.13;;;;;;;14.83;92.42;100462.47;5545339;32;34112;-88
2022/05/12 04:46:17;;;;;;;20.50;15.07;;;;;;;14.92;91.36;100466.34;5544057;32;32181;-88
2022/05/12 04:49:22;;;;;;;20.70;14.57;;;;;;;15.12;90.13;100477.50;5547468;32;34517;-88
2022/05/12 04:52:26;;;;;;;19.25;14.68;;;;;;;15.29;88.72;100471.84;5555253;32;33365;-88
2022/05/12 04:55:29;;;;;;;22.45;14.80;;;;;;;15.54;86.32;100469.34;5556199;32;32876;-87
2022/05/12 04:58:32;;;;;;;18.65;13.55;;;;;;;15.66;84.10;100470.28;5550586;32;32907;-86
2022/05/12 05:01:35;;;;;;;18.60;13.48;;;;;;;15.92;84.41;100472.94;5544105;32;33632;-87
2022/05/12 05:04:38;;;;;;;21.83;13.95;;;;;;;16.10;83.71;100481.53;5542806;32;32932;-87
2022/05/12 05:07:41;;;;;;;18.08;13.18;;;;;;;16.37;81.41;100475.13;5546272;32;34265;-86
2022/05/12 05:10:44;;;;;;;18.37;14.68;;;;;;;17.06;77.90;100479.06;5560645;32;33447;-87
2022/05/12 05:13:48;;;;;;;17.95;13.55;;;;;;;17.17;75.98;100481.78;5543216;32;32433;-87
2022/05/12 05:16:52;;;;;;;17.37;12.45;;;;;;;17.38;76.10;100475.75;5547834;32;34484;-87
2022/05/12 05:19:55;;;;;;;16.15;12.43;;;;;;;17.80;73.04;100482.38;5557946;32;34182;-86
2022/05/12 05:22:57;;;;;;;18.73;13.23;;;;;;;18.50;69.93;100485.78;5562781;32;32456;-86
2022/05/12 05:26:00;;;;;;;19.05;12.35;;;;;;;19.18;67.07;100479.34;5558024;32;34069;-87
2022/05/12 05:29:03;;;;;;;20.55;12.07;;;;;;;20.98;61.27;100483.47;5542360;32;33756;-86
2022/05/12 05:32:06;;;;;;;16.20;11.07;;;;;;;23.45;52.43;100482.28;5533388;32;32597;-87
2022/05/12 05:35:12;;;;;;;17.60;11.30;;;;;;;26.02;44.63;100477.37;5545257;32;32406;-87
2022/05/12 05:38:15;;;;;;;17.70;10.52;;;;;;;25.90;44.96;100474.16;5518330;32;32582;-87
2022/05/12 05:41:19;;;;;;;13.77;11.00;;;;;;;26.09;44.19;100472.06;5536554;32;33585;-87
2022/05/12 05:44:22;;;;;;;16.98;11.15;;;;;;;25.52;44.62;100472.03;5551980;32;33899;-86
2022/05/12 05:47:25;;;;;;;17.67;11.20;;;;;;;24.53;45.57;100475.53;5554051;32;34447;-87
2022/05/12 05:50:31;;;;;;;12.90;10.27;;;;;;;24.27;46.69;100468.34;5556045;32;34605;-86
2022/05/12 05:53:36;;;;;;;14.48;10.63;;;;;;;23.65;48.90;100474.81;5561884;32;33768;-88
2022/05/12 05:56:39;;;;;;;15.18;10.43;;;;;;;24.06;47.90;100474.16;5558551;32;35177;-92
2022/05/12 05:59:42;;;;;;;14.35;10.73;;;;;;;23.62;49.11;100477.81;5550653;32;34393;-92
2022/05/12 06:02:45;;;;;;;12.88;10.40;;;;;;;23.38;49.44;100487.50;5542290;32;34470;-92
2022/05/12 06:05:48;;;;;;;13.05;10.90;;;;;;;23.87;48.24;100480.66;5534934;32;33893;-89
2022/05/12 06:08:52;;;;;;;22.48;11.32;;;;;;;23.13;50.18;100484.56;5532337;32;32225;-88
2022/05/12 06:11:55;;;;;;;16.02;11.15;;;;;;;23.67;49.05;100479.06;5524348;32;34649;-89
2022/05/12 06:14:58;;;;;;;13.95;10.27;;;;;;;23.41;49.06;100482.62;5521804;32;31820;-89
2022/05/12 06:18:13;;;;;;;15.32;10.48;;;;;;;24.63;47.11;100483.53;5516676;32;35340;-90
2022/05/12 06:21:16;;;;;;;16.10;10.98;;;;;;;26.18;43.33;100481.88;5520791;32;33848;-89
2022/05/12 06:24:19;;;;;;;13.80;10.82;;;;;;;26.44;41.69;100479.94;5564268;26;32254;-89
2022/05/12 06:27:24;;;;;;;17.37;11.00;;;;;;;27.45;40.08;100482.56;5567651;32;32483;-87
2022/05/12 06:30:29;;;;;;;15.63;11.38;;;;;;;25.94;42.92;100480.94;5555313;32;32431;-87
2022/05/12 06:33:34;;;;;;;15.45;10.30;;;;;;;25.53;44.19;100483.78;5553858;32;32593;-87
2022/05/12 06:36:37;;;;;;;16.30;10.80;;;;;;;24.54;46.79;100470.97;5567418;32;33628;-86
2022/05/12 06:39:40;;;;;;;13.48;9.93;;;;;;;24.04;47.96;100473.50;5568294;32;34382;-87
2022/05/12 06:42:43;;;;;;;12.75;10.23;;;;;;;23.87;49.04;100477.97;5565568;32;34533;-87
2022/05/12 06:45:46;;;;;;;14.05;10.18;;;;;;;23.56;48.77;100490.16;5554731;32;33155;-88
2022/05/12 06:48:51;;;;;;;17.42;9.82;;;;;;;23.18;49.69;100489.50;5559039;32;33642;-87
2022/05/12 06:51:55;;;;;;;12.98;8.73;;;;;;;23.46;49.98;100492.97;5538236;32;32815;-86
2022/05/12 06:54:58;;;;;;;15.02;9.77;;;;;;;23.95;48.82;100483.44;5568373;32;33725;-86
2022/05/12 06:58:00;;;;;;;12.27;9.18;;;;;;;24.34;46.86;100482.94;5552394;32;33147;-87
2022/05/12 07:01:04;;;;;;;17.45;9.20;;;;;;;24.10;48.56;100489.13;5561153;32;34120;-87
2022/05/12 07:04:07;;;;;;;18.75;9.73;;;;;;;24.28;48.19;100489.03;5536967;32;32394;-88
2022/05/12 07:07:09;;;;;;;13.38;9.20;;;;;;;24.72;47.49;100487.97;5569569;32;34735;-87
2022/05/12 07:10:13;;;;;;;14.10;9.73;;;;;;;25.02;45.82;100490.22;5540364;32;33257;-88
2022/05/12 07:13:20;;;;;;;20.52;9.77;;;;;;;25.06;45.56;100497.00;5559505;32;33677;-88
2022/05/12 07:16:23;;;;;;;18.85;9.00;;;;;;;25.70;44.07;100487.31;5539687;32;33301;-88
2022/05/12 07:19:27;;;;;;;15.20;8.82;;;;;;;25.52;44.38;100480.19;5556286;26;32577;-89
2022/05/12 07:29:19;;;;;;;13.00;9.80;;;;;;;26.31;43.03;100484.06;5547682;32;33894;-88
2022/05/12 07:32:22;;;;;;;10.60;8.52;;;;;;;26.06;44.00;100476.00;5520695;32;32952;-90
2022/05/12 07:35:25;;;;;;;18.50;10.02;;;;;;;26.50;42.47;100482.75;5502359;32;33681;-86
2022/05/12 07:38:28;;;;;;;18.05;9.32;;;;;;;25.86;44.24;100477.41;5541484;32;34444;-85
2022/05/12 07:41:31;;;;;;;12.88;9.73;;;;;;;25.64;44.79;100477.97;5516556;32;33301;-87
2022/05/12 07:44:34;;;;;;;16.67;9.88;;;;;;;25.66;45.10;100469.66;5514785;32;32606;-86
2022/05/12 07:47:37;;;;;;;12.57;9.48;;;;;;;26.28;43.13;100472.69;5540621;32;34332;-87
2022/05/12 07:50:40;;;;;;;11.50;9.80;;;;;;;26.68;42.75;100470.75;5538497;32;34609;-86
2022/05/12 07:53:46;;;;;;;14.13;9.43;;;;;;;26.96;41.71;100470.25;5548060;32;34091;-86
2022/05/12 07:56:49;;;;;;;13.20;9.43;;;;;;;27.46;40.93;100464.34;5533137;32;32576;-86
2022/05/12 07:59:52;;;;;;;12.13;8.80;;;;;;;27.53;40.41;100453.53;5528941;32;33848;-85
2022/05/12 08:02:56;;;;;;;10.25;8.20;;;;;;;27.50;40.64;100460.19;5531758;32;33736;-85
2022/05/12 08:06:02;;;;;;;13.88;9.55;;;;;;;28.24;39.25;100463.16;5516537;32;33911;-85
2022/05/12 08:09:06;;;;;;;17.45;9.70;;;;;;;27.69;40.10;100468.88;5529841;32;34666;-88
2022/05/12 08:12:09;;;;;;;14.65;9.32;;;;;;;28.11;38.56;100469.25;5513969;32;32443;-88
2022/05/12 08:15:12;;;;;;;11.70;8.85;;;;;;;28.70;38.21;100472.88;5515792;32;32908;-88
2022/05/12 08:18:21;;;;;;;15.82;8.13;;;;;;;28.69;37.69;100473.06;5528455;32;33901;-88
2022/05/12 08:21:23;;;;;;;10.98;7.85;;;;;;;29.06;37.06;100476.59;5518721;32;34023;-85
2022/05/12 08:24:27;;;;;;;15.98;8.77;;;;;;;29.23;37.32;100463.53;5516403;32;32452;-86
2022/05/12 08:27:30;;;;;;;12.25;7.82;;;;;;;29.13;36.93;100469.34;5516087;32;32902;-84
2022/05/12 08:30:33;;;;;;;14.13;7.97;;;;;;;29.65;36.42;100470.97;5528501;32;33589;-84
2022/05/12 08:33:37;;;;;;;12.43;7.50;;;;;;;29.31;36.27;100465.28;5515844;32;32980;-84
2022/05/12 08:36:40;;;;;;;13.95;8.68;;;;;;;29.97;36.18;100466.75;5530012;32;33808;-84
2022/05/12 08:39:44;;;;;;;13.65;8.30;;;;;;;29.55;35.97;100469.47;5530319;32;33864;-85
2022/05/12 08:42:47;;;;;;;12.25;8.57;;;;;;;29.67;36.55;100474.37;5525299;32;34146;-85
2022/05/12 08:45:52;;;;;;;14.23;7.85;;;;;;;30.02;35.04;100468.03;5524126;32;32859;-85
2022/05/12 08:49:12;;;;;;;15.57;8.50;;;;;;;29.95;35.12;100462.53;5529186;32;34567;-85
2022/05/12 08:52:46;;;;;;;11.35;7.10;;;;;;;30.06;35.27;100467.41;5514894;32;32326;-86
2022/05/12 08:55:52;;;;;;;18.45;7.15;;;;;;;31.14;33.42;100466.84;5530892;32;34393;-85
2022/05/12 08:58:57;;;;;;;11.57;7.50;;;;;;;30.92;32.47;100467.06;5516438;32;32798;-88
2022/05/12 09:02:24;;;;;;;18.20;7.00;;;;;;;30.71;33.11;100460.72;5514831;32;33164;-90
2022/05/12 09:05:34;;;;;;;11.95;6.82;;;;;;;31.15;32.98;100469.38;5530238;32;34611;-85
2022/05/12 09:08:59;;;;;;;10.02;6.80;;;;;;;30.34;33.07;100465.66;5517616;32;32190;-86
2022/05/12 09:12:11;;;;;;;15.02;7.32;;;;;;;31.54;31.42;100469.59;5530101;32;33593;-85
2022/05/12 09:15:26;;;;;;;12.32;6.68;;;;;;;31.90;30.63;100464.69;5518055;32;32165;-86
2022/05/12 09:18:33;;;;;;;13.38;6.45;;;;;;;32.04;30.49;100470.09;5536196;32;34076;-85
2022/05/12 09:21:39;;;;;;;;;;;;;;;31.95;31.07;100464.03;5536561;32;35567;-89
2022/05/12 09:24:41;;;;;;;12.50;6.47;;;;;;;33.26;30.05;100471.06;5535775;32;36029;-88
2022/05/12 09:27:44;;;;;;;12.00;6.78;;;;;;;32.45;30.23;100459.81;5536201;32;33382;-86
2022/05/12 09:31:17;;;;;;;11.80;6.68;;;;;;;31.50;31.13;100470.22;5548042;32;34189;-87
2022/05/12 09:34:31;;;;;;;8.85;6.60;;;;;;;32.10;30.73;100469.22;5550064;32;33962;-87
2022/05/12 09:37:44;;;;;;;11.65;6.75;;;;;;;33.33;29.15;100460.03;5536343;32;33056;-88
2022/05/12 09:40:47;;;;;;;10.70;6.30;;;;;;;32.37;30.47;100458.97;5537373;32;32709;-90
2022/05/12 09:43:52;;;;;;;14.43;6.85;;;;;;;33.15;29.83;100464.41;5535611;32;34719;-92
2022/05/12 09:47:12;;;;;;;13.07;6.53;;;;;;;33.92;29.13;100456.03;5549624;32;35306;-92
2022/05/12 09:50:26;;;;;;;10.30;6.20;;;;;;;36.26;25.09;100452.38;5539112;32;33953;-87
2022/05/12 09:53:31;;;;;;;16.17;6.50;;;;;;;36.05;24.73;100459.41;5527711;32;34293;-88
2022/05/12 09:56:35;;;;;;;11.77;5.72;;;;;;;34.90;26.59;100447.69;5517981;32;32358;-87
2022/05/12 09:59:41;;;;;;;16.15;5.90;;;;;;;34.41;26.45;100445.88;5519175;32;32832;-88
2022/05/12 10:09:51;;;;;;;15.18;6.05;;;;;;;35.15;25.84;100443.06;5521076;32;32343;-86
2022/05/12 10:13:13;;;;;;;10.43;5.93;;;;;;;34.96;25.89;100437.63;5550120;32;33952;-86
2022/05/12 10:16:27;;;;;;;10.82;5.85;;;;;;;34.11;26.72;100434.84;5556561;32;34396;-86
2022/05/12 10:19:31;;;;;;;8.88;5.90;;;;;;;34.98;25.63;100434.66;5545125;32;33960;-85
2022/05/12 10:22:59;;;;;;;8.15;5.62;;;;;;;34.71;26.38;100430.41;5546201;32;34119;-85
2022/05/12 10:26:13;;;;;;;8.38;5.65;;;;;;;34.54;26.69;100427.47;5543921;32;33143;-87
2022/05/12 10:29:42;;;;;;;7.03;5.53;;;;;;;35.25;24.90;100426.78;5528007;32;33169;-85
2022/05/12 10:32:46;;;;;;;9.32;5.22;;;;;;;38.38;21.25;100415.09;5521333;32;32809;-87
2022/05/12 10:36:22;;;;;;;8.60;5.47;;;;;;;39.67;19.93;100419.09;5540048;31;34181;-90
2022/05/12 10:39:47;;;;;;;7.22;5.07;;;;;;;38.69;21.60;100409.87;5591964;26;34186;-89
2022/05/12 10:43:26;;;;;;;10.32;5.45;;;;;;;38.42;21.76;100401.56;5536719;32;33102;-89
2022/05/12 10:46:44;;;;;;;8.85;5.45;;;;;;;36.92;23.55;100414.31;5518017;32;34803;-87
2022/05/12 10:50:00;;;;;;;8.73;5.20;;;;;;;36.04;24.18;100409.97;5531367;32;33097;-88
2022/05/12 10:53:27;;;;;;;9.93;5.37;;;;;;;34.76;26.14;100400.25;5529915;32;33020;-87
2022/05/12 10:56:40;;;;;;;8.43;5.20;;;;;;;35.30;25.16;100413.09;5521983;32;33022;-88
2022/05/12 11:00:00;;;;;;;8.10;4.90;;;;;;;35.59;25.29;100417.88;5532793;32;33904;-88
2022/05/12 11:03:13;;;;;;;9.88;5.32;;;;;;;35.46;25.23;100413.44;5536768;32;32643;-89
2022/05/12 11:06:21;;;;;;;5.85;5.20;;;;;;;35.31;25.29;100420.31;5551022;32;35979;-90
2022/05/12 11:09:29;;;;;;;17.02;5.28;;;;;;;36.67;23.82;100407.28;5544673;32;33242;-87
2022/05/12 11:12:39;;;;;;;6.90;4.75;;;;;;;36.61;24.27;100411.03;5517490;32;32838;-87
2022/05/12 11:15:58;;;;;;;14.30;5.85;;;;;;;36.03;24.54;100408.28;5515293;32;34117;-88
2022/05/12 11:19:08;;;;;;;9.75;5.35;;;;;;;35.80;25.64;100399.00;5519370;32;33456;-89
2022/05/12 11:22:19;;;;;;;;;;;;;;;35.55;25.69;100395.41;5521599;32;32693;-87
2022/05/12 11:29:48;;;;;;;9.52;5.70;;;;;;;35.10;25.91;100396.09;5341151;30;20214;-87
2022/05/12 11:33:17;;;;;;;7.12;5.37;;;;;;;34.72;26.57;100376.16;5517206;32;33871;-85
2022/05/12 11:36:20;;;;;;;9.32;5.22;;;;;;;34.69;26.16;100380.25;5507986;32;33925;-86
2022/05/12 11:39:38;;;;;;;10.13;4.90;;;;;;;33.63;27.65;100381.47;5509157;32;33917;-87
2022/05/12 11:47:01;;;;;;;6.30;4.80;;;;;;;33.44;26.47;100381.47;5512122;32;32922;-89
2022/05/12 11:50:28;;;;;;;8.98;5.05;;;;;;;33.74;26.10;100383.47;5511551;32;32969;-88
2022/05/12 11:54:01;;;;;;;4.85;4.45;;;;;;;33.85;26.16;100377.16;5511570;32;32400;-88
2022/05/12 11:57:22;;;;;;;5.22;4.60;;;;;;;33.66;25.75;100378.25;5514056;32;32959;-89
2022/05/12 12:00:34;;;;;;;5.18;4.68;;;;;;;32.18;28.16;100374.88;5511465;32;34336;-87
2022/05/12 12:03:51;;;;;;;5.80;4.40;;;;;;;31.85;28.99;100372.09;5512527;32;33738;-90
2022/05/12 12:06:55;;;;;;;5.93;4.60;;;;;;;32.51;28.43;100371.94;5512355;32;32751;-90
2022/05/12 12:10:24;;;;;;;6.85;4.20;;;;;;;32.42;27.94;100369.69;5518682;32;34072;-88
2022/05/12 12:13:40;;;;;;;9.00;4.63;;;;;;;33.08;27.23;100364.69;5523797;27;32843;-89
2022/05/12 12:17:19;;;;;;;6.05;4.50;;;;;;;32.83;27.08;100364.72;5506284;32;33674;-87
2022/05/12 12:20:28;;;;;;;6.55;4.70;;;;;;;32.48;27.27;100369.63;5468887;32;34157;-89
2022/05/12 12:23:34;;;;;;;5.35;4.50;;;;;;;32.35;28.10;100359.56;5493426;32;32576;-87
2022/05/12 12:26:38;;;;;;;7.32;4.37;;;;;;;32.00;26.84;100360.84;5489683;32;32816;-87
2022/05/12 12:29:46;;;;;;;7.07;4.45;;;;;;;32.46;26.69;100357.19;5490276;32;34887;-87
2022/05/12 12:33:20;;;;;;;15.73;3.92;;;;;;;32.49;27.01;100357.56;5480360;32;34261;-89
2022/05/12 12:36:26;;;;;;;10.05;4.18;;;;;;;32.90;24.96;100369.06;5498738;32;34588;-89
2022/05/12 12:39:55;;;;;;;9.85;3.75;;;;;;;33.01;23.05;100362.03;5492713;32;33644;-86
2022/05/12 12:43:17;;;;;;;7.95;3.78;;;;;;;32.39;24.44;100358.03;5489247;32;34453;-86
2022/05/12 12:46:44;;;;;;;4.68;3.58;;;;;;;31.70;25.05;100361.38;5492934;32;34477;-88
2022/05/12 12:49:54;;;;;;;5.37;3.75;;;;;;;31.26;24.98;100360.22;5503866;32;34593;-88
2022/05/12 12:56:35;;;;;;;6.40;3.95;;;;;;;31.55;24.98;100338.84;5550559;32;20100;-88
2022/05/12 12:59:50;;;;;;;3.97;3.53;;;;;;;32.14;25.11;100341.56;5539539;32;33546;-88
2022/05/12 13:02:58;;;;;;;6.18;4.00;;;;;;;31.66;25.68;100343.66;5542350;32;34018;-88
2022/05/12 13:06:14;;;;;;;6.37;3.87;;;;;;;31.72;25.61;100341.94;5543580;32;32869;-88
2022/05/12 13:09:30;;;;;;;6.95;3.78;;;;;;;31.38;25.35;100344.00;5549806;32;33646;-87
2022/05/12 13:12:34;;;;;;;11.93;4.25;;;;;;;31.81;25.17;100331.56;5550437;32;33031;-87
2022/05/12 13:15:40;;;;;;;7.12;3.50;;;;;;;31.76;25.78;100334.16;5569172;32;33880;-89
2022/05/12 13:18:46;;;;;;;8.35;3.90;;;;;;;31.99;24.90;100336.38;5546810;32;32718;-89
2022/05/12 13:21:49;;;;;;;13.62;4.53;;;;;;;31.72;25.31;100326.34;5544470;32;32785;-89
2022/05/12 13:24:52;;;;;;;8.25;3.70;;;;;;;31.01;26.18;100333.50;5552607;32;34080;-89
2022/05/12 13:27:56;;;;;;;7.43;4.10;;;;;;;31.01;26.85;100334.34;5536917;32;31918;-87
2022/05/12 13:31:13;;;;;;;8.05;3.95;;;;;;;31.11;27.04;100330.34;5551444;32;33927;-92
2022/05/12 13:34:24;;;;;;;5.15;3.75;;;;;;;31.48;27.28;100321.59;5556326;32;34485;-87
2022/05/12 13:37:30;;;;;;;6.72;3.87;;;;;;;31.68;26.88;100324.25;5561746;32;34589;-87
2022/05/12 13:41:09;;;;;;;5.87;3.85;;;;;;;31.82;25.97;100322.31;5572587;32;33939;-87
2022/05/12 13:44:15;;;;;;;5.60;4.22;;;;;;;31.05;27.10;100321.91;5555414;32;32637;-87
2022/05/12 13:47:30;;;;;;;4.53;3.83;;;;;;;30.82;27.97;100321.53;5555940;32;33209;-88
2022/05/12 13:54:59;;;;;;;6.12;4.05;;;;;;;31.17;27.95;100316.59;5639873;26;20108;-85
2022/05/12 13:58:02;;;;;;;8.75;3.80;;;;;;;31.26;27.83;100310.91;5575721;31;33391;-88
2022/05/12 14:01:05;;;;;;;6.05;4.20;;;;;;;31.09;27.43;100316.84;5582382;31;32899;-87
2022/05/12 14:04:20;;;;;;;8.10;4.43;;;;;;;30.91;27.76;100312.03;5623206;26;33559;-88
2022/05/12 14:07:28;;;;;;;11.55;4.00;;;;;;;31.06;27.30;100307.16;5476921;32;32411;-88
2022/05/12 14:10:43;;;;;;;7.57;3.87;;;;;;;30.72;28.49;100311.00;5477998;32;32832;-88
2022/05/12 14:20:35;;;;;;;8.88;4.03;;;;;;;30.12;29.30;100308.00;5479106;32;33482;-89
2022/05/12 14:23:38;;;;;;;5.90;4.30;;;;;;;30.01;30.73;100303.09;5478916;32;32366;-88
2022/05/12 14:26:42;;;;;;;6.75;3.90;;;;;;;30.02;30.27;100302.09;5478917;32;33181;-88
2022/05/12 14:29:45;;;;;;;8.02;4.25;;;;;;;29.86;29.71;100297.81;5478522;32;33939;-88
2022/05/12 14:32:50;;;;;;;7.78;4.55;;;;;;;29.70;30.12;100294.41;5477422;32;32856;-88
2022/05/12 14:35:54;;;;;;;6.62;4.18;;;;;;;29.61;30.54;100283.88;5486382;32;32550;-88
2022/05/12 14:38:59;;;;;;;10.38;5.15;;;;;;;29.55;30.50;100285.53;5466279;32;34273;-89
2022/05/12 14:42:03;;;;;;;6.12;4.30;;;;;;;30.01;30.71;100286.69;5459832;32;33522;-89
2022/05/12 14:45:06;;;;;;;6.32;3.80;;;;;;;29.86;31.18;100282.25;5474179;32;34014;-88
2022/05/12 14:48:09;;;;;;;12.15;5.03;;;;;;;29.58;31.45;100274.19;5473075;32;34325;-88
2022/05/12 14:51:16;;;;;;;7.28;3.90;;;;;;;29.70;31.65;100271.69;5460197;32;34211;-89
2022/05/12 14:54:19;;;;;;;6.87;4.35;;;;;;;29.87;31.01;100280.38;5462355;32;33037;-88
2022/05/12 14:57:23;;;;;;;6.68;4.15;;;;;;;29.99;30.59;100277.87;5469491;32;32805;-88
2022/05/12 15:00:26;;;;;;;8.88;4.80;;;;;;;30.05;30.61;100274.31;5472169;32;33504;-88
2022/05/12 15:03:31;;;;;;;6.35;4.30;;;;;;;30.65;29.65;100273.50;5459037;32;33679;-88
2022/05/12 15:06:37;;;;;;;5.40;4.57;;;;;;;30.67;30.28;100265.09;5468019;32;33084;-89
2022/05/12 15:09:40;;;;;;;9.15;4.40;;;;;;;30.96;29.73;100260.19;5472962;32;34465;-92
2022/05/12 15:12:46;;;;;;;8.32;4.40;;;;;;;30.99;28.80;100261.66;5479922;32;35157;-92
2022/05/12 15:15:48;;;;;;;6.25;4.12;;;;;;;31.26;29.35;100261.59;5472766;32;33845;-89
2022/05/12 15:18:53;;;;;;;5.53;3.85;;;;;;;31.34;28.24;100264.13;5472424;32;34341;-89
2022/05/12 15:21:56;;;;;;;10.02;3.97;;;;;;;31.04;28.51;100261.88;5471024;32;34775;-88
2022/05/12 15:24:58;;;;;;;7.05;4.00;;;;;;;30.81;28.67;100260.44;5471477;32;32595;-89
2022/05/12 15:28:01;;;;;;;5.97;4.00;;;;;;;30.58;28.44;100253.53;5472722;32;34953;-88
2022/05/12 15:31:06;;;;;;;7.00;3.67;;;;;;;30.28;29.27;100262.16;5473111;32;33953;-88
2022/05/12 15:34:11;;;;;;;6.05;3.90;;;;;;;29.80;30.12;100263.97;5472752;32;34560;-89
